sensor_id;sensor_type;location;lat;lon;timestamp;pressure;altitude;pressure_sealevel;temperature;humidity
27980;BME280;15315;50.836;4.430;2023-09-19T00:00:37;100433.34;;;19.88;68.46
27980;BME280;15315;50.836;4.430;2023-09-19T00:10:37;100451.09;;;19.92;68.25
27980;BME280;15315;50.836;4.430;2023-09-19T00:20:39;100462.78;;;20.41;66.56
27980;BME280;15315;50.836;4.430;2023-09-19T00:30:42;100464.41;;;20.19;66.97
27980;BME280;15315;50.836;4.430;2023-09-19T00:40:47;100472.13;;;20.08;65.89
27980;BME280;15315;50.836;4.430;2023-09-19T00:50:48;100480.53;;;20.14;64.17
27980;BME280;15315;50.836;4.430;2023-09-19T01:00:49;100484.28;;;19.97;63.08
27980;BME280;15315;50.836;4.430;2023-09-19T01:21:28;100494.38;;;19.97;60.88
27980;BME280;15315;50.836;4.430;2023-09-19T01:31:33;100490.28;;;19.93;60.50
27980;BME280;15315;50.836;4.430;2023-09-19T01:41:55;100502.25;;;20.08;60.36
27980;BME280;15315;50.836;4.430;2023-09-19T01:52:13;100509.75;;;20.06;60.70
27980;BME280;15315;50.836;4.430;2023-09-19T02:02:14;100512.00;;;19.78;60.82
27980;BME280;15315;50.836;4.430;2023-09-19T02:12:17;100506.53;;;19.62;60.80
27980;BME280;15315;50.836;4.430;2023-09-19T02:22:18;100486.34;;;19.87;58.49
27980;BME280;15315;50.836;4.430;2023-09-19T02:32:18;100509.09;;;19.96;57.96
27980;BME280;15315;50.836;4.430;2023-09-19T02:42:18;100503.97;;;19.44;58.93
27980;BME280;15315;50.836;4.430;2023-09-19T02:52:19;100503.09;;;20.08;57.65
27980;BME280;15315;50.836;4.430;2023-09-19T03:02:19;100526.88;;;19.59;58.93
27980;BME280;15315;50.836;4.430;2023-09-19T03:12:19;100534.47;;;18.99;61.76
27980;BME280;15315;50.836;4.430;2023-09-19T03:22:20;100540.38;;;19.45;61.02
27980;BME280;15315;50.836;4.430;2023-09-19T03:32:21;100540.56;;;19.67;61.42
27980;BME280;15315;50.836;4.430;2023-09-19T03:42:21;100529.19;;;19.06;64.09
27980;BME280;15315;50.836;4.430;2023-09-19T03:52:25;100507.34;;;19.22;63.70
27980;BME280;15315;50.836;4.430;2023-09-19T04:02:26;100505.97;;;19.18;63.76
27980;BME280;15315;50.836;4.430;2023-09-19T04:12:26;100525.13;;;19.26;63.51
27980;BME280;15315;50.836;4.430;2023-09-19T04:22:27;100531.03;;;18.89;64.63
27980;BME280;15315;50.836;4.430;2023-09-19T04:32:28;100536.59;;;18.46;68.25
27980;BME280;15315;50.836;4.430;2023-09-19T04:42:28;100534.97;;;18.61;68.40
27980;BME280;15315;50.836;4.430;2023-09-19T04:52:30;100551.34;;;18.27;69.96
27980;BME280;15315;50.836;4.430;2023-09-19T05:02:31;100559.84;;;18.24;69.49
27980;BME280;15315;50.836;4.430;2023-09-19T05:12:35;100576.00;;;17.92;72.25
27980;BME280;15315;50.836;4.430;2023-09-19T05:22:35;100579.88;;;18.07;72.78
27980;BME280;15315;50.836;4.430;2023-09-19T05:32:36;100588.81;;;18.17;73.63
27980;BME280;15315;50.836;4.430;2023-09-19T05:42:36;100571.94;;;18.47;71.24
27980;BME280;15315;50.836;4.430;2023-09-19T05:52:38;100570.88;;;18.40;72.92
27980;BME280;15315;50.836;4.430;2023-09-19T06:02:38;100588.56;;;18.11;74.04
27980;BME280;15315;50.836;4.430;2023-09-19T06:12:41;100588.06;;;18.33;73.36
27980;BME280;15315;50.836;4.430;2023-09-19T06:22:45;100582.16;;;18.45;72.42
27980;BME280;15315;50.836;4.430;2023-09-19T06:32:45;100593.50;;;18.59;71.44
27980;BME280;15315;50.836;4.430;2023-09-19T06:42:47;100598.00;;;19.01;69.79
27980;BME280;15315;50.836;4.430;2023-09-19T06:52:54;100612.97;;;18.97;70.07
27980;BME280;15315;50.836;4.430;2023-09-19T07:02:59;100625.06;;;19.29;68.13
27980;BME280;15315;50.836;4.430;2023-09-19T07:13:04;100620.63;;;19.28;68.19
27980;BME280;15315;50.836;4.430;2023-09-19T07:23:09;100609.94;;;19.58;66.95
27980;BME280;15315;50.836;4.430;2023-09-19T07:33:09;100605.19;;;19.68;67.11
27980;BME280;15315;50.836;4.430;2023-09-19T07:43:12;100605.53;;;19.65;66.47
27980;BME280;15315;50.836;4.430;2023-09-19T07:53:13;100614.09;;;19.70;67.09
27980;BME280;15315;50.836;4.430;2023-09-19T08:03:13;100616.97;;;19.61;66.37
27980;BME280;15315;50.836;4.430;2023-09-19T08:13:14;100600.56;;;19.77;66.19
27980;BME280;15315;50.836;4.430;2023-09-19T08:23:17;100611.06;;;19.32;67.96
27980;BME280;15315;50.836;4.430;2023-09-19T08:33:20;100604.19;;;20.18;65.68
27980;BME280;15315;50.836;4.430;2023-09-19T08:43:21;100589.09;;;20.30;63.82
27980;BME280;15315;50.836;4.430;2023-09-19T08:53:49;100605.69;;;20.45;61.33
27980;BME280;15315;50.836;4.430;2023-09-19T09:03:55;100591.28;;;20.59;59.44
27980;BME280;15315;50.836;4.430;2023-09-19T09:13:56;100596.28;;;21.33;57.65
27980;BME280;15315;50.836;4.430;2023-09-19T09:23:57;100587.28;;;20.85;57.20
27980;BME280;15315;50.836;4.430;2023-09-19T09:33:57;100573.13;;;21.66;55.25
27980;BME280;15315;50.836;4.430;2023-09-19T09:44:12;100574.03;;;21.58;55.01
27980;BME280;15315;50.836;4.430;2023-09-19T09:54:17;100587.09;;;21.56;54.11
27980;BME280;15315;50.836;4.430;2023-09-19T10:04:27;100568.44;;;21.52;53.74
27980;BME280;15315;50.836;4.430;2023-09-19T10:14:38;100579.56;;;21.50;53.91
27980;BME280;15315;50.836;4.430;2023-09-19T10:24:38;100567.22;;;21.54;54.78
27980;BME280;15315;50.836;4.430;2023-09-19T10:34:41;100560.25;;;21.67;54.98
27980;BME280;15315;50.836;4.430;2023-09-19T10:44:42;100540.41;;;21.34;54.24
27980;BME280;15315;50.836;4.430;2023-09-19T10:54:47;100558.22;;;21.60;55.00
27980;BME280;15315;50.836;4.430;2023-09-19T11:04:51;100555.56;;;21.75;54.54
27980;BME280;15315;50.836;4.430;2023-09-19T11:14:52;100543.09;;;22.24;53.94
27980;BME280;15315;50.836;4.430;2023-09-19T11:24:52;100546.53;;;22.41;53.99
27980;BME280;15315;50.836;4.430;2023-09-19T11:35:06;100521.91;;;22.62;53.56
27980;BME280;15315;50.836;4.430;2023-09-19T11:55:46;100519.69;;;23.80;50.78
27980;BME280;15315;50.836;4.430;2023-09-19T12:05:47;100529.91;;;23.65;50.78
27980;BME280;15315;50.836;4.430;2023-09-19T12:15:47;100533.91;;;24.32;49.23
27980;BME280;15315;50.836;4.430;2023-09-19T12:25:48;100518.59;;;23.53;50.54
27980;BME280;15315;50.836;4.430;2023-09-19T12:35:48;100511.31;;;23.45;50.95
27980;BME280;15315;50.836;4.430;2023-09-19T12:45:50;100503.44;;;23.64;50.34
27980;BME280;15315;50.836;4.430;2023-09-19T12:55:58;100503.38;;;24.34;49.70
27980;BME280;15315;50.836;4.430;2023-09-19T13:06:02;100509.22;;;24.18;49.95
27980;BME280;15315;50.836;4.430;2023-09-19T13:16:04;100499.53;;;24.28;49.97
27980;BME280;15315;50.836;4.430;2023-09-19T13:26:10;100514.28;;;24.83;49.42
27980;BME280;15315;50.836;4.430;2023-09-19T13:36:11;100515.78;;;24.51;49.09
27980;BME280;15315;50.836;4.430;2023-09-19T13:46:13;100505.16;;;24.82;49.10
27980;BME280;15315;50.836;4.430;2023-09-19T13:56:16;100503.69;;;24.52;48.87
27980;BME280;15315;50.836;4.430;2023-09-19T14:06:17;100497.47;;;24.02;49.74
27980;BME280;15315;50.836;4.430;2023-09-19T14:16:17;100496.31;;;24.18;49.33
27980;BME280;15315;50.836;4.430;2023-09-19T14:26:18;100480.72;;;24.04;50.05
27980;BME280;15315;50.836;4.430;2023-09-19T14:36:18;100493.69;;;24.44;49.44
27980;BME280;15315;50.836;4.430;2023-09-19T14:46:19;100480.84;;;23.96;50.15
27980;BME280;15315;50.836;4.430;2023-09-19T14:56:19;100475.28;;;24.92;49.24
27980;BME280;15315;50.836;4.430;2023-09-19T15:06:20;100472.31;;;24.53;49.40
27980;BME280;15315;50.836;4.430;2023-09-19T15:16:20;100483.84;;;24.29;49.33
27980;BME280;15315;50.836;4.430;2023-09-19T15:26:20;100484.34;;;24.39;49.32
27980;BME280;15315;50.836;4.430;2023-09-19T15:36:22;100486.16;;;23.70;50.76
27980;BME280;15315;50.836;4.430;2023-09-19T15:46:23;100476.47;;;24.01;50.81
27980;BME280;15315;50.836;4.430;2023-09-19T15:56:24;100476.41;;;23.67;51.38
27980;BME280;15315;50.836;4.430;2023-09-19T16:06:27;100473.72;;;23.80;51.47
27980;BME280;15315;50.836;4.430;2023-09-19T16:16:28;100497.13;;;23.27;52.12
27980;BME280;15315;50.836;4.430;2023-09-19T16:26:30;100487.63;;;23.30;52.72
27980;BME280;15315;50.836;4.430;2023-09-19T16:36:30;100466.28;;;23.11;53.05
27980;BME280;15315;50.836;4.430;2023-09-19T16:46:31;100490.41;;;22.94;53.85
27980;BME280;15315;50.836;4.430;2023-09-19T16:56:32;100491.78;;;22.54;54.56
27980;BME280;15315;50.836;4.430;2023-09-19T17:06:35;100485.97;;;22.93;54.52
27980;BME280;15315;50.836;4.430;2023-09-19T17:16:36;100499.50;;;22.95;54.11
27980;BME280;15315;50.836;4.430;2023-09-19T17:26:37;100487.38;;;22.89;54.86
27980;BME280;15315;50.836;4.430;2023-09-19T17:36:40;100486.47;;;22.38;57.74
27980;BME280;15315;50.836;4.430;2023-09-19T17:46:40;100482.50;;;22.26;57.25
27980;BME280;15315;50.836;4.430;2023-09-19T17:56:40;100484.63;;;22.01;57.83
27980;BME280;15315;50.836;4.430;2023-09-19T18:06:41;100491.31;;;22.21;57.95
27980;BME280;15315;50.836;4.430;2023-09-19T18:16:45;100464.56;;;22.45;57.44
27980;BME280;15315;50.836;4.430;2023-09-19T18:26:45;100458.81;;;22.25;57.80
27980;BME280;15315;50.836;4.430;2023-09-19T18:36:45;100447.06;;;22.16;57.49
27980;BME280;15315;50.836;4.430;2023-09-19T18:46:46;100478.03;;;21.73;58.91
27980;BME280;15315;50.836;4.430;2023-09-19T18:56:47;100473.97;;;21.69;58.89
27980;BME280;15315;50.836;4.430;2023-09-19T19:06:49;100467.03;;;21.36;59.89
27980;BME280;15315;50.836;4.430;2023-09-19T19:16:49;100456.78;;;21.75;58.65
27980;BME280;15315;50.836;4.430;2023-09-19T19:26:50;100461.06;;;21.92;58.20
27980;BME280;15315;50.836;4.430;2023-09-19T19:36:50;100479.13;;;22.01;57.63
27980;BME280;15315;50.836;4.430;2023-09-19T19:46:51;100468.72;;;21.97;58.07
27980;BME280;15315;50.836;4.430;2023-09-19T19:56:51;100475.47;;;21.57;59.50
27980;BME280;15315;50.836;4.430;2023-09-19T20:06:51;100478.13;;;21.65;59.59
27980;BME280;15315;50.836;4.430;2023-09-19T20:16:52;100468.41;;;22.29;57.62
27980;BME280;15315;50.836;4.430;2023-09-19T20:26:54;100469.69;;;21.52;59.93
27980;BME280;15315;50.836;4.430;2023-09-19T20:36:56;100455.03;;;21.59;59.44
27980;BME280;15315;50.836;4.430;2023-09-19T20:46:57;100459.53;;;22.04;58.73
27980;BME280;15315;50.836;4.430;2023-09-19T20:56:57;100457.16;;;22.01;58.79
27980;BME280;15315;50.836;4.430;2023-09-19T21:06:59;100465.06;;;21.52;60.13
27980;BME280;15315;50.836;4.430;2023-09-19T21:16:59;100457.72;;;21.82;59.40
27980;BME280;15315;50.836;4.430;2023-09-19T21:27:00;100443.25;;;22.03;59.73
27980;BME280;15315;50.836;4.430;2023-09-19T21:37:04;100442.06;;;21.53;60.64
27980;BME280;15315;50.836;4.430;2023-09-19T21:47:07;100443.06;;;21.75;59.98
27980;BME280;15315;50.836;4.430;2023-09-19T21:57:07;100442.41;;;21.28;62.93
27980;BME280;15315;50.836;4.430;2023-09-19T22:07:07;100444.28;;;21.73;61.72
27980;BME280;15315;50.836;4.430;2023-09-19T22:17:08;100442.25;;;21.29;63.24
27980;BME280;15315;50.836;4.430;2023-09-19T22:27:13;100449.50;;;21.82;61.96
27980;BME280;15315;50.836;4.430;2023-09-19T22:37:13;100451.13;;;22.06;61.25
27980;BME280;15315;50.836;4.430;2023-09-19T22:47:14;100440.03;;;21.99;62.03
27980;BME280;15315;50.836;4.430;2023-09-19T22:57:14;100444.66;;;21.84;62.72
27980;BME280;15315;50.836;4.430;2023-09-19T23:07:14;100437.66;;;21.82;62.74
27980;BME280;15315;50.836;4.430;2023-09-19T23:17:15;100441.19;;;22.05;62.06
27980;BME280;15315;50.836;4.430;2023-09-19T23:27:22;100433.50;;;21.86;63.12
27980;BME280;15315;50.836;4.430;2023-09-19T23:37:33;100439.09;;;22.07;61.83
27980;BME280;15315;50.836;4.430;2023-09-19T23:47:34;100431.75;;;21.10;66.34
27980;BME280;15315;50.836;4.430;2023-09-19T23:57:38;100430.00;;;21.77;64.17
